sensor_id;sensor_type;location;lat;lon;timestamp;pressure;altitude;pressure_sealevel;temperature;humidity
13011;BME280;6786;57.632;11.962;2022-12-17T00:01:21;101296.75;;;19.50;29.96
13011;BME280;6786;57.632;11.962;2022-12-17T00:04:07;101291.41;;;19.50;30.02
13011;BME280;6786;57.632;11.962;2022-12-17T00:06:52;101295.06;;;19.49;29.92
13011;BME280;6786;57.632;11.962;2022-12-17T00:09:38;101298.44;;;19.51;29.99
13011;BME280;6786;57.632;11.962;2022-12-17T00:12:24;101297.00;;;19.47;29.93
13011;BME280;6786;57.632;11.962;2022-12-17T00:15:10;101293.34;;;19.48;30.01
13011;BME280;6786;57.632;11.962;2022-12-17T00:18:01;101300.28;;;19.51;30.04
13011;BME280;6786;57.632;11.962;2022-12-17T00:20:51;101302.13;;;19.50;30.04
13011;BME280;6786;57.632;11.962;2022-12-17T00:23:36;101302.13;;;19.50;30.03
13011;BME280;6786;57.632;11.962;2022-12-17T00:26:22;101295.88;;;19.49;29.91
13011;BME280;6786;57.632;11.962;2022-12-17T00:29:08;101287.03;;;19.49;29.96
13011;BME280;6786;57.632;11.962;2022-12-17T00:31:54;101287.03;;;19.49;30.05
13011;BME280;6786;57.632;11.962;2022-12-17T00:34:39;101286.03;;;19.50;30.03
13011;BME280;6786;57.632;11.962;2022-12-17T00:37:25;101280.66;;;19.50;29.94
13011;BME280;6786;57.632;11.962;2022-12-17T00:40:10;101280.66;;;19.50;30.06
13011;BME280;6786;57.632;11.962;2022-12-17T00:43:00;101276.16;;;19.51;29.96
13011;BME280;6786;57.632;11.962;2022-12-17T00:45:47;101250.72;;;19.34;30.14
13011;BME280;6786;57.632;11.962;2022-12-17T00:48:32;101269.06;;;19.49;30.09
13011;BME280;6786;57.632;11.962;2022-12-17T00:51:19;101275.31;;;19.50;29.98
13011;BME280;6786;57.632;11.962;2022-12-17T00:54:18;101283.34;;;19.50;30.06
13011;BME280;6786;57.632;11.962;2022-12-17T00:57:04;101288.72;;;19.50;30.11
13011;BME280;6786;57.632;11.962;2022-12-17T00:59:49;101298.44;;;19.51;30.06
13011;BME280;6786;57.632;11.962;2022-12-17T01:02:36;101298.44;;;19.51;30.09
13011;BME280;6786;57.632;11.962;2022-12-17T01:05:24;101301.88;;;19.53;30.08
13011;BME280;6786;57.632;11.962;2022-12-17T01:08:11;101310.91;;;19.52;29.99
13011;BME280;6786;57.632;11.962;2022-12-17T01:11:07;101311.16;;;19.49;30.07
13011;BME280;6786;57.632;11.962;2022-12-17T01:13:52;101309.16;;;19.51;29.95
13011;BME280;6786;57.632;11.962;2022-12-17T01:16:38;101314.53;;;19.51;29.96
13011;BME280;6786;57.632;11.962;2022-12-17T01:19:25;101302.97;;;19.51;30.02
13011;BME280;6786;57.632;11.962;2022-12-17T01:22:10;101302.97;;;19.51;30.12
13011;BME280;6786;57.632;11.962;2022-12-17T01:24:56;101303.81;;;19.51;30.09
13011;BME280;6786;57.632;11.962;2022-12-17T01:27:41;101309.16;;;19.51;30.02
13011;BME280;6786;57.632;11.962;2022-12-17T01:30:27;101319.91;;;19.51;30.00
13011;BME280;6786;57.632;11.962;2022-12-17T01:33:13;101322.59;;;19.51;30.12
13011;BME280;6786;57.632;11.962;2022-12-17T01:36:00;101333.31;;;19.51;30.22
13011;BME280;6786;57.632;11.962;2022-12-17T01:38:46;101327.94;;;19.51;30.09
13011;BME280;6786;57.632;11.962;2022-12-17T01:41:31;101319.91;;;19.51;30.08
13011;BME280;6786;57.632;11.962;2022-12-17T01:44:43;101319.06;;;19.51;30.22
13011;BME280;6786;57.632;11.962;2022-12-17T01:47:31;101311.97;;;19.49;30.01
13011;BME280;6786;57.632;11.962;2022-12-17T01:50:18;101300.41;;;19.49;30.01
13011;BME280;6786;57.632;11.962;2022-12-17T01:53:06;101311.16;;;19.49;30.15
13011;BME280;6786;57.632;11.962;2022-12-17T01:55:52;101324.56;;;19.49;30.14
13011;BME280;6786;57.632;11.962;2022-12-17T01:58:39;101320.88;;;19.50;29.84
13011;BME280;6786;57.632;11.962;2022-12-17T02:01:25;101315.53;;;19.50;30.08
13011;BME280;6786;57.632;11.962;2022-12-17T02:04:11;101315.41;;;19.52;30.14
13011;BME280;6786;57.632;11.962;2022-12-17T02:07:07;101325.25;;;19.51;30.06
13011;BME280;6786;57.632;11.962;2022-12-17T02:10:04;101319.91;;;19.51;30.13
13011;BME280;6786;57.632;11.962;2022-12-17T02:12:55;101319.91;;;19.51;30.02
13011;BME280;6786;57.632;11.962;2022-12-17T02:15:51;101326.25;;;19.50;30.03
13011;BME280;6786;57.632;11.962;2022-12-17T02:18:43;101314.53;;;19.51;30.16
13011;BME280;6786;57.632;11.962;2022-12-17T02:21:30;101323.56;;;19.50;30.01
13011;BME280;6786;57.632;11.962;2022-12-17T02:24:24;101321.00;;;19.48;30.16
13011;BME280;6786;57.632;11.962;2022-12-17T02:27:14;101309.41;;;19.48;30.21
13011;BME280;6786;57.632;11.962;2022-12-17T02:30:03;101319.06;;;19.51;30.16
13011;BME280;6786;57.632;11.962;2022-12-17T02:32:50;101307.47;;;19.50;30.06
13011;BME280;6786;57.632;11.962;2022-12-17T02:35:40;101310.16;;;19.50;30.16
13011;BME280;6786;57.632;11.962;2022-12-17T02:38:28;101310.16;;;19.50;30.12
13011;BME280;6786;57.632;11.962;2022-12-17T02:41:16;101310.16;;;19.50;30.04
13011;BME280;6786;57.632;11.962;2022-12-17T02:44:04;101309.66;;;19.45;30.29
13011;BME280;6786;57.632;11.962;2022-12-17T02:46:52;101327.13;;;19.51;30.12
13011;BME280;6786;57.632;11.962;2022-12-17T02:49:38;101318.19;;;19.50;30.16
13011;BME280;6786;57.632;11.962;2022-12-17T02:52:24;101316.50;;;19.49;30.13
13011;BME280;6786;57.632;11.962;2022-12-17T02:55:11;101311.16;;;19.49;30.15
13011;BME280;6786;57.632;11.962;2022-12-17T02:57:56;101305.78;;;19.49;30.14
13011;BME280;6786;57.632;11.962;2022-12-17T03:00:43;101305.78;;;19.49;30.18
13011;BME280;6786;57.632;11.962;2022-12-17T03:03:29;101299.44;;;19.50;30.09
13011;BME280;6786;57.632;11.962;2022-12-17T03:06:16;101302.13;;;19.50;30.16
13011;BME280;6786;57.632;11.962;2022-12-17T03:09:01;101302.13;;;19.50;30.17
13011;BME280;6786;57.632;11.962;2022-12-17T03:11:49;101296.75;;;19.50;30.09
13011;BME280;6786;57.632;11.962;2022-12-17T03:14:35;101295.88;;;19.49;30.05
13011;BME280;6786;57.632;11.962;2022-12-17T03:17:22;101295.06;;;19.49;30.08
13011;BME280;6786;57.632;11.962;2022-12-17T03:20:08;101280.66;;;19.50;30.23
13011;BME280;6786;57.632;11.962;2022-12-17T03:23:00;101270.94;;;19.49;30.23
13011;BME280;6786;57.632;11.962;2022-12-17T03:25:46;101269.94;;;19.50;30.11
13011;BME280;6786;57.632;11.962;2022-12-17T03:28:31;101263.72;;;19.49;30.18
13011;BME280;6786;57.632;11.962;2022-12-17T03:31:17;101268.25;;;19.49;30.13
13011;BME280;6786;57.632;11.962;2022-12-17T03:34:03;101261.03;;;19.49;30.16
13011;BME280;6786;57.632;11.962;2022-12-17T03:36:49;101275.31;;;19.50;30.14
13011;BME280;6786;57.632;11.962;2022-12-17T03:39:35;101268.25;;;19.49;30.20
13011;BME280;6786;57.632;11.962;2022-12-17T03:42:20;101263.72;;;19.49;30.25
13011;BME280;6786;57.632;11.962;2022-12-17T03:45:06;101268.25;;;19.49;30.24
13011;BME280;6786;57.632;11.962;2022-12-17T03:48:02;101274.44;;;19.49;30.07
13011;BME280;6786;57.632;11.962;2022-12-17T03:50:49;101268.25;;;19.49;30.20
13011;BME280;6786;57.632;11.962;2022-12-17T03:53:37;101275.31;;;19.50;30.21
13011;BME280;6786;57.632;11.962;2022-12-17T03:56:23;101286.03;;;19.50;30.18
13011;BME280;6786;57.632;11.962;2022-12-17T03:59:08;101292.25;;;19.51;30.25
13011;BME280;6786;57.632;11.962;2022-12-17T04:01:54;101289.56;;;19.51;30.27
13011;BME280;6786;57.632;11.962;2022-12-17T04:04:40;101288.59;;;19.52;30.22
13011;BME280;6786;57.632;11.962;2022-12-17T04:07:27;101293.09;;;19.51;30.14
13011;BME280;6786;57.632;11.962;2022-12-17T04:10:13;101294.94;;;19.51;30.21
13011;BME280;6786;57.632;11.962;2022-12-17T04:12:58;101310.03;;;19.52;30.17
13011;BME280;6786;57.632;11.962;2022-12-17T04:15:44;101314.53;;;19.51;30.20
13011;BME280;6786;57.632;11.962;2022-12-17T04:18:29;101321.63;;;19.52;30.25
13011;BME280;6786;57.632;11.962;2022-12-17T04:21:14;101325.25;;;19.51;30.24
13011;BME280;6786;57.632;11.962;2022-12-17T04:24:01;101316.25;;;19.52;30.27
13011;BME280;6786;57.632;11.962;2022-12-17T04:26:47;101314.53;;;19.51;30.19
13011;BME280;6786;57.632;11.962;2022-12-17T04:29:32;101320.75;;;19.52;30.19
13011;BME280;6786;57.632;11.962;2022-12-17T04:32:18;101314.53;;;19.51;30.28
13011;BME280;6786;57.632;11.962;2022-12-17T04:35:04;101313.69;;;19.51;30.32
13011;BME280;6786;57.632;11.962;2022-12-17T04:37:49;101305.53;;;19.52;30.17
13011;BME280;6786;57.632;11.962;2022-12-17T04:40:47;101294.81;;;19.52;30.23
13011;BME280;6786;57.632;11.962;2022-12-17T04:43:33;101294.81;;;19.52;30.22
13011;BME280;6786;57.632;11.962;2022-12-17T04:46:23;101284.09;;;19.52;30.33
13011;BME280;6786;57.632;11.962;2022-12-17T04:49:09;101269.94;;;19.50;30.40
13011;BME280;6786;57.632;11.962;2022-12-17T04:52:09;101266.28;;;19.51;30.34
13011;BME280;6786;57.632;11.962;2022-12-17T04:54:54;101262.63;;;19.52;30.42
13011;BME280;6786;57.632;11.962;2022-12-17T04:57:41;101259.97;;;19.52;30.40
13011;BME280;6786;57.632;11.962;2022-12-17T05:00:27;101251.91;;;19.52;30.41
13011;BME280;6786;57.632;11.962;2022-12-17T05:03:14;101253.84;;;19.50;30.23
13011;BME280;6786;57.632;11.962;2022-12-17T05:06:01;101250.06;;;19.52;30.31
13011;BME280;6786;57.632;11.962;2022-12-17T05:08:46;101248.25;;;19.53;30.38
13011;BME280;6786;57.632;11.962;2022-12-17T05:11:32;101242.88;;;19.53;30.45
13011;BME280;6786;57.632;11.962;2022-12-17T05:14:19;101244.81;;;19.51;30.24
13011;BME280;6786;57.632;11.962;2022-12-17T05:17:05;101240.19;;;19.53;30.43
13011;BME280;6786;57.632;11.962;2022-12-17T05:19:51;101253.59;;;19.53;30.42
13011;BME280;6786;57.632;11.962;2022-12-17T05:22:36;101245.56;;;19.53;30.51
13011;BME280;6786;57.632;11.962;2022-12-17T05:25:21;101237.53;;;19.53;30.46
13011;BME280;6786;57.632;11.962;2022-12-17T05:28:07;101244.56;;;19.54;30.48
13011;BME280;6786;57.632;11.962;2022-12-17T05:30:54;101250.06;;;19.52;30.48
13011;BME280;6786;57.632;11.962;2022-12-17T05:33:39;101253.59;;;19.53;30.43
13011;BME280;6786;57.632;11.962;2022-12-17T05:36:25;101254.47;;;19.54;30.58
13011;BME280;6786;57.632;11.962;2022-12-17T05:39:22;101248.25;;;19.53;30.50
13011;BME280;6786;57.632;11.962;2022-12-17T05:42:07;101250.94;;;19.53;30.42
13011;BME280;6786;57.632;11.962;2022-12-17T05:44:52;101239.22;;;19.54;30.58
13011;BME280;6786;57.632;11.962;2022-12-17T05:47:39;101235.81;;;19.52;30.50
13011;BME280;6786;57.632;11.962;2022-12-17T05:50:25;101241.91;;;19.54;30.53
13011;BME280;6786;57.632;11.962;2022-12-17T05:53:10;101236.41;;;19.56;30.50
13011;BME280;6786;57.632;11.962;2022-12-17T05:55:56;101224.00;;;19.55;30.59
13011;BME280;6786;57.632;11.962;2022-12-17T05:58:41;101238.25;;;19.55;30.48
13011;BME280;6786;57.632;11.962;2022-12-17T06:01:26;101239.94;;;19.56;30.62
13011;BME280;6786;57.632;11.962;2022-12-17T06:04:13;101246.31;;;19.55;30.54
13011;BME280;6786;57.632;11.962;2022-12-17T06:06:58;101242.63;;;19.56;30.65
13011;BME280;6786;57.632;11.962;2022-12-17T06:09:44;101246.31;;;19.55;30.54
13011;BME280;6786;57.632;11.962;2022-12-17T06:12:29;101235.56;;;19.55;30.61
13011;BME280;6786;57.632;11.962;2022-12-17T06:15:14;101251.66;;;19.55;30.68
13011;BME280;6786;57.632;11.962;2022-12-17T06:18:00;101242.63;;;19.56;30.64
13011;BME280;6786;57.632;11.962;2022-12-17T06:20:47;101237.28;;;19.56;30.51
13011;BME280;6786;57.632;11.962;2022-12-17T06:23:32;101238.97;;;19.57;30.70
13011;BME280;6786;57.632;11.962;2022-12-17T06:26:17;101240.69;;;19.58;30.83
13011;BME280;6786;57.632;11.962;2022-12-17T06:29:03;101235.31;;;19.58;30.69
13011;BME280;6786;57.632;11.962;2022-12-17T06:31:48;101239.22;;;19.54;30.71
13011;BME280;6786;57.632;11.962;2022-12-17T06:34:34;101249.69;;;19.57;30.74
13011;BME280;6786;57.632;11.962;2022-12-17T06:37:21;101255.06;;;19.57;30.64
13011;BME280;6786;57.632;11.962;2022-12-17T06:40:07;101261.28;;;19.58;30.74
13011;BME280;6786;57.632;11.962;2022-12-17T06:42:53;101266.63;;;19.58;30.68
13011;BME280;6786;57.632;11.962;2022-12-17T06:45:38;101264.34;;;19.53;30.76
13011;BME280;6786;57.632;11.962;2022-12-17T06:48:24;101278.22;;;19.58;30.76
13011;BME280;6786;57.632;11.962;2022-12-17T06:51:09;101260.72;;;19.43;30.80
13011;BME280;6786;57.632;11.962;2022-12-17T06:53:56;101267.75;;;19.55;30.74
13011;BME280;6786;57.632;11.962;2022-12-17T06:56:41;101272.00;;;19.58;30.78
13011;BME280;6786;57.632;11.962;2022-12-17T06:59:26;101271.13;;;19.57;30.72
13011;BME280;6786;57.632;11.962;2022-12-17T07:02:12;101278.47;;;19.55;30.90
13011;BME280;6786;57.632;11.962;2022-12-17T07:04:57;101274.56;;;19.59;30.77
13011;BME280;6786;57.632;11.962;2022-12-17T07:07:43;101279.19;;;19.57;30.79
13011;BME280;6786;57.632;11.962;2022-12-17T07:10:30;101278.22;;;19.58;30.79
13011;BME280;6786;57.632;11.962;2022-12-17T07:13:12;101283.59;;;19.58;30.90
13011;BME280;6786;57.632;11.962;2022-12-17T07:15:57;101272.88;;;19.58;30.84
13011;BME280;6786;57.632;11.962;2022-12-17T07:18:42;101267.50;;;19.58;30.96
13011;BME280;6786;57.632;11.962;2022-12-17T07:21:28;101283.59;;;19.58;30.94
13011;BME280;6786;57.632;11.962;2022-12-17T07:24:14;101285.28;;;19.59;30.90
13011;BME280;6786;57.632;11.962;2022-12-17T07:27:00;101296.88;;;19.60;30.83
13011;BME280;6786;57.632;11.962;2022-12-17T07:29:46;101295.03;;;19.60;30.84
13011;BME280;6786;57.632;11.962;2022-12-17T07:32:31;101296.72;;;19.61;30.98
13011;BME280;6786;57.632;11.962;2022-12-17T07:35:18;101297.69;;;19.60;31.01
13011;BME280;6786;57.632;11.962;2022-12-17T07:38:04;101303.94;;;19.61;31.00
13011;BME280;6786;57.632;11.962;2022-12-17T07:40:49;101297.69;;;19.60;30.99
13011;BME280;6786;57.632;11.962;2022-12-17T07:43:36;101310.13;;;19.61;30.97
13011;BME280;6786;57.632;11.962;2022-12-17T07:46:35;101299.41;;;19.61;30.98
13011;BME280;6786;57.632;11.962;2022-12-17T07:49:40;101303.06;;;19.60;30.94
13011;BME280;6786;57.632;11.962;2022-12-17T07:52:26;101303.06;;;19.60;31.01
13011;BME280;6786;57.632;11.962;2022-12-17T07:55:11;101282.38;;;19.51;31.03
13011;BME280;6786;57.632;11.962;2022-12-17T07:58:05;101292.34;;;19.60;31.01
13011;BME280;6786;57.632;11.962;2022-12-17T08:00:52;101239.13;;;19.22;31.05
13011;BME280;6786;57.632;11.962;2022-12-17T08:03:38;101297.94;;;19.57;31.05
13011;BME280;6786;57.632;11.962;2022-12-17T08:06:23;101303.06;;;19.60;30.97
13011;BME280;6786;57.632;11.962;2022-12-17T08:09:08;101306.75;;;19.59;31.16
13011;BME280;6786;57.632;11.962;2022-12-17T08:11:53;101314.66;;;19.61;31.01
13011;BME280;6786;57.632;11.962;2022-12-17T08:14:39;101303.06;;;19.60;31.01
13011;BME280;6786;57.632;11.962;2022-12-17T08:17:25;101315.47;;;19.61;31.09
13011;BME280;6786;57.632;11.962;2022-12-17T08:20:11;101317.22;;;19.62;31.02
13011;BME280;6786;57.632;11.962;2022-12-17T08:23:11;101317.22;;;19.62;31.25
13011;BME280;6786;57.632;11.962;2022-12-17T08:25:57;101310.13;;;19.61;31.15
13011;BME280;6786;57.632;11.962;2022-12-17T08:28:42;101301.63;;;19.56;31.09
13011;BME280;6786;57.632;11.962;2022-12-17T08:31:27;101324.28;;;19.63;31.12
13011;BME280;6786;57.632;11.962;2022-12-17T08:34:14;101292.38;;;19.49;31.17
13011;BME280;6786;57.632;11.962;2022-12-17T08:36:59;101329.63;;;19.63;31.04
13011;BME280;6786;57.632;11.962;2022-12-17T08:39:44;101323.28;;;19.64;31.17
13011;BME280;6786;57.632;11.962;2022-12-17T08:42:30;101328.78;;;19.63;31.11
13011;BME280;6786;57.632;11.962;2022-12-17T08:45:15;101335.25;;;19.60;31.17
13011;BME280;6786;57.632;11.962;2022-12-17T08:48:02;101311.16;;;19.49;31.13
13011;BME280;6786;57.632;11.962;2022-12-17T08:50:50;101342.06;;;19.64;31.23
13011;BME280;6786;57.632;11.962;2022-12-17T08:53:35;101342.06;;;19.64;31.20
13011;BME280;6786;57.632;11.962;2022-12-17T08:56:21;101321.00;;;19.48;31.25
13011;BME280;6786;57.632;11.962;2022-12-17T08:59:07;101347.66;;;19.61;31.57
13011;BME280;6786;57.632;11.962;2022-12-17T09:02:08;101346.84;;;19.61;31.20
13011;BME280;6786;57.632;11.962;2022-12-17T09:04:54;101353.03;;;19.61;31.21
13011;BME280;6786;57.632;11.962;2022-12-17T09:07:41;101349.41;;;19.62;31.09
13011;BME280;6786;57.632;11.962;2022-12-17T09:10:26;101305.78;;;19.38;31.21
13011;BME280;6786;57.632;11.962;2022-12-17T09:13:12;101355.72;;;19.61;31.40
13011;BME280;6786;57.632;11.962;2022-12-17T09:15:57;101353.03;;;19.61;31.28
13011;BME280;6786;57.632;11.962;2022-12-17T09:18:42;101353.03;;;19.61;31.32
13011;BME280;6786;57.632;11.962;2022-12-17T09:21:28;101340.59;;;19.60;31.35
13011;BME280;6786;57.632;11.962;2022-12-17T09:24:15;101352.06;;;19.62;31.39
13011;BME280;6786;57.632;11.962;2022-12-17T09:27:00;101357.44;;;19.62;31.38
13011;BME280;6786;57.632;11.962;2022-12-17T09:29:57;101353.03;;;19.61;31.38
13011;BME280;6786;57.632;11.962;2022-12-17T09:32:43;101353.03;;;19.61;31.43
13011;BME280;6786;57.632;11.962;2022-12-17T09:35:29;101365.47;;;19.62;31.35
13011;BME280;6786;57.632;11.962;2022-12-17T09:38:14;101365.47;;;19.62;31.44
13011;BME280;6786;57.632;11.962;2022-12-17T09:41:05;101362.81;;;19.62;31.52
13011;BME280;6786;57.632;11.962;2022-12-17T09:44:02;101353.88;;;19.62;31.43
13011;BME280;6786;57.632;11.962;2022-12-17T09:46:54;101350.34;;;19.61;31.53
13011;BME280;6786;57.632;11.962;2022-12-17T09:49:44;101344.28;;;19.59;31.46
13011;BME280;6786;57.632;11.962;2022-12-17T09:52:32;101357.44;;;19.62;31.47
13011;BME280;6786;57.632;11.962;2022-12-17T09:55:20;101360.13;;;19.62;31.50
13011;BME280;6786;57.632;11.962;2022-12-17T09:58:17;101364.63;;;19.62;31.73
13011;BME280;6786;57.632;11.962;2022-12-17T10:01:04;101364.63;;;19.62;31.52
13011;BME280;6786;57.632;11.962;2022-12-17T10:03:50;101363.75;;;19.61;31.56
13011;BME280;6786;57.632;11.962;2022-12-17T10:06:36;101365.47;;;19.62;31.56
13011;BME280;6786;57.632;11.962;2022-12-17T10:09:21;101319.44;;;19.35;31.49
13011;BME280;6786;57.632;11.962;2022-12-17T10:12:12;101355.72;;;19.61;31.64
13011;BME280;6786;57.632;11.962;2022-12-17T10:15:01;101356.00;;;19.58;31.48
13011;BME280;6786;57.632;11.962;2022-12-17T10:20:50;101362.91;;;19.61;31.63
13011;BME280;6786;57.632;11.962;2022-12-17T10:23:37;101367.41;;;19.60;31.56
13011;BME280;6786;57.632;11.962;2022-12-17T10:26:25;101361.06;;;19.61;31.65
13011;BME280;6786;57.632;11.962;2022-12-17T10:29:14;101345.50;;;19.44;31.53
13011;BME280;6786;57.632;11.962;2022-12-17T10:32:08;101336.47;;;19.45;31.85
13011;BME280;6786;57.632;11.962;2022-12-17T10:34:54;101357.56;;;19.61;31.57
13011;BME280;6786;57.632;11.962;2022-12-17T10:37:39;101361.06;;;19.61;31.65
13011;BME280;6786;57.632;11.962;2022-12-17T10:40:27;101364.63;;;19.62;31.61
13011;BME280;6786;57.632;11.962;2022-12-17T10:43:24;101369.13;;;19.61;31.90
13011;BME280;6786;57.632;11.962;2022-12-17T10:46:10;101372.78;;;19.60;31.74
13011;BME280;6786;57.632;11.962;2022-12-17T10:49:04;101377.16;;;19.61;31.89
13011;BME280;6786;57.632;11.962;2022-12-17T10:51:50;101373.66;;;19.61;31.73
13011;BME280;6786;57.632;11.962;2022-12-17T10:54:35;101377.91;;;19.63;31.71
13011;BME280;6786;57.632;11.962;2022-12-17T10:57:29;101376.22;;;19.62;31.87
13011;BME280;6786;57.632;11.962;2022-12-17T11:00:23;101372.53;;;19.63;32.16
13011;BME280;6786;57.632;11.962;2022-12-17T11:03:24;101347.81;;;19.48;32.07
13011;BME280;6786;57.632;11.962;2022-12-17T11:06:17;101367.19;;;19.63;31.75
13011;BME280;6786;57.632;11.962;2022-12-17T11:09:19;101332.84;;;19.46;31.84
13011;BME280;6786;57.632;11.962;2022-12-17T11:12:08;101355.59;;;19.63;31.80
13011;BME280;6786;57.632;11.962;2022-12-17T11:15:02;101374.47;;;19.61;31.81
13011;BME280;6786;57.632;11.962;2022-12-17T11:17:51;101383.38;;;19.62;31.67
13011;BME280;6786;57.632;11.962;2022-12-17T11:20:45;101378.03;;;19.62;31.92
13011;BME280;6786;57.632;11.962;2022-12-17T11:23:35;101338.69;;;19.40;32.09
13011;BME280;6786;57.632;11.962;2022-12-17T11:26:34;101367.19;;;19.63;31.87
13011;BME280;6786;57.632;11.962;2022-12-17T11:29:20;101364.75;;;19.60;31.90
13011;BME280;6786;57.632;11.962;2022-12-17T11:35:45;101374.22;;;19.64;32.10
13011;BME280;6786;57.632;11.962;2022-12-17T11:38:37;101351.59;;;19.46;32.09
13011;BME280;6786;57.632;11.962;2022-12-17T11:41:33;101387.78;;;19.63;32.17
13011;BME280;6786;57.632;11.962;2022-12-17T11:44:30;101387.88;;;19.61;32.17
13011;BME280;6786;57.632;11.962;2022-12-17T11:47:27;101382.69;;;19.60;32.15
13011;BME280;6786;57.632;11.962;2022-12-17T11:50:26;101382.53;;;19.61;32.02
13011;BME280;6786;57.632;11.962;2022-12-17T11:53:22;101381.56;;;19.62;32.21
13011;BME280;6786;57.632;11.962;2022-12-17T11:56:15;101392.31;;;19.62;32.18
13011;BME280;6786;57.632;11.962;2022-12-17T11:59:12;101381.56;;;19.62;32.11
13011;BME280;6786;57.632;11.962;2022-12-17T12:02:04;101380.72;;;19.62;32.05
13011;BME280;6786;57.632;11.962;2022-12-17T12:05:05;101371.97;;;19.60;32.21
13011;BME280;6786;57.632;11.962;2022-12-17T12:07:58;101377.91;;;19.63;32.07
13011;BME280;6786;57.632;11.962;2022-12-17T12:11:04;101372.78;;;19.60;32.04
13011;BME280;6786;57.632;11.962;2022-12-17T12:14:05;101377.91;;;19.63;32.28
13011;BME280;6786;57.632;11.962;2022-12-17T12:17:14;101383.28;;;19.63;32.14
13011;BME280;6786;57.632;11.962;2022-12-17T12:20:11;101386.94;;;19.62;32.13
13011;BME280;6786;57.632;11.962;2022-12-17T12:23:08;101385.22;;;19.61;32.22
13011;BME280;6786;57.632;11.962;2022-12-17T12:26:03;101390.56;;;19.61;32.18
13011;BME280;6786;57.632;11.962;2022-12-17T12:28:56;101403.03;;;19.62;32.20
13011;BME280;6786;57.632;11.962;2022-12-17T12:31:52;101402.16;;;19.62;32.26
13011;BME280;6786;57.632;11.962;2022-12-17T12:34:38;101399.59;;;19.60;32.17
13011;BME280;6786;57.632;11.962;2022-12-17T12:37:23;101419.13;;;19.62;32.18
13011;BME280;6786;57.632;11.962;2022-12-17T12:40:15;101420.81;;;19.63;32.18
13011;BME280;6786;57.632;11.962;2022-12-17T12:43:07;101415.44;;;19.63;32.21
13011;BME280;6786;57.632;11.962;2022-12-17T12:46:07;101412.75;;;19.63;32.17
13011;BME280;6786;57.632;11.962;2022-12-17T12:48:57;101412.75;;;19.63;32.14
13011;BME280;6786;57.632;11.962;2022-12-17T12:51:44;101385.97;;;19.52;32.11
13011;BME280;6786;57.632;11.962;2022-12-17T12:54:31;101367.19;;;19.41;32.21
13011;BME280;6786;57.632;11.962;2022-12-17T12:57:41;101399.34;;;19.63;32.12
13011;BME280;6786;57.632;11.962;2022-12-17T13:00:32;101397.03;;;19.59;32.33
13011;BME280;6786;57.632;11.962;2022-12-17T13:03:24;101417.16;;;19.64;32.21
13011;BME280;6786;57.632;11.962;2022-12-17T13:06:12;101415.44;;;19.63;32.21
13011;BME280;6786;57.632;11.962;2022-12-17T13:08:40;101367.69;;;19.35;32.11
13011;BME280;6786;57.632;11.962;2022-12-17T13:11:24;101359.13;;;19.30;32.27
13011;BME280;6786;57.632;11.962;2022-12-17T13:13:58;101406.41;;;19.64;32.24
13011;BME280;6786;57.632;11.962;2022-12-17T13:16:32;101418.88;;;19.65;32.37
13011;BME280;6786;57.632;11.962;2022-12-17T13:19:15;101399.59;;;19.60;32.28
13011;BME280;6786;57.632;11.962;2022-12-17T13:21:45;101416.19;;;19.65;32.20
13011;BME280;6786;57.632;11.962;2022-12-17T13:24:23;101406.41;;;19.64;32.52
13011;BME280;6786;57.632;11.962;2022-12-17T13:26:53;101375.13;;;19.42;32.26
13011;BME280;6786;57.632;11.962;2022-12-17T13:29:26;101411.53;;;19.67;32.27
13011;BME280;6786;57.632;11.962;2022-12-17T13:32:11;101399.13;;;19.66;32.48
13011;BME280;6786;57.632;11.962;2022-12-17T13:34:51;101361.94;;;19.39;32.51
13011;BME280;6786;57.632;11.962;2022-12-17T13:37:31;101399.13;;;19.66;32.38
13011;BME280;6786;57.632;11.962;2022-12-17T13:40:19;101398.25;;;19.66;32.52
13011;BME280;6786;57.632;11.962;2022-12-17T13:42:49;101360.38;;;19.37;32.40
13011;BME280;6786;57.632;11.962;2022-12-17T13:45:21;101409.84;;;19.66;32.30
13011;BME280;6786;57.632;11.962;2022-12-17T13:47:53;101406.16;;;19.67;32.28
13011;BME280;6786;57.632;11.962;2022-12-17T13:50:24;101410.69;;;19.67;32.31
13011;BME280;6786;57.632;11.962;2022-12-17T13:53:13;101415.22;;;19.66;32.56
13011;BME280;6786;57.632;11.962;2022-12-17T13:55:49;101413.38;;;19.67;32.58
13011;BME280;6786;57.632;11.962;2022-12-17T13:58:22;101406.41;;;19.64;32.39
13011;BME280;6786;57.632;11.962;2022-12-17T14:00:51;101385.97;;;19.52;32.24
13011;BME280;6786;57.632;11.962;2022-12-17T14:03:21;101413.50;;;19.65;32.49
13011;BME280;6786;57.632;11.962;2022-12-17T14:06:10;101421.31;;;19.68;32.38
13011;BME280;6786;57.632;11.962;2022-12-17T14:08:40;101412.53;;;19.66;32.28
13011;BME280;6786;57.632;11.962;2022-12-17T14:11:10;101413.25;;;19.68;32.38
13011;BME280;6786;57.632;11.962;2022-12-17T14:13:56;101418.63;;;19.68;32.41
13011;BME280;6786;57.632;11.962;2022-12-17T14:16:24;101414.97;;;19.69;32.43
13011;BME280;6786;57.632;11.962;2022-12-17T14:18:54;101420.56;;;19.66;32.30
13011;BME280;6786;57.632;11.962;2022-12-17T14:21:24;101424.00;;;19.68;32.40
13011;BME280;6786;57.632;11.962;2022-12-17T14:23:55;101418.63;;;19.68;32.33
13011;BME280;6786;57.632;11.962;2022-12-17T14:26:24;101399.84;;;19.57;32.46
13011;BME280;6786;57.632;11.962;2022-12-17T14:28:53;101399.25;;;19.54;32.42
13011;BME280;6786;57.632;11.962;2022-12-17T14:31:23;101434.47;;;19.71;32.36
13011;BME280;6786;57.632;11.962;2022-12-17T14:34:01;101425.69;;;19.69;32.46
13011;BME280;6786;57.632;11.962;2022-12-17T14:36:34;101438.13;;;19.70;32.44
13011;BME280;6786;57.632;11.962;2022-12-17T14:39:15;101438.13;;;19.70;32.68